<?xml version="1.0" encoding="UTF-8" standalone="no" ?>
<gpx xmlns="http://www.topografix.com/GPX/1/1" xmlns:xsi="http://www.w3.org/2001/XMLSchema-instance" xsi:schemaLocation="http://www.topografix.com/GPX/1/1 http://www.topografix.com/GPX/1/1/gpx.xsd" version="1.1" creator="VisuGPX - https://www.visugpx.com">
  <metadata>
    <name>Norvège</name>
  </metadata>
  <trk>
    <name><![CDATA[Tour d'Europe: étape 053]]></name>
    <trkseg>
      <trkpt lat="68.16136" lon="13.5826">
        <ele>54.632344</ele>
        <time>2020-08-20T08:53:08.356Z</time>
      </trkpt>
      <trkpt lat="68.1632" lon="13.58531">
        <ele>56.980796</ele>
        <time>2020-08-20T08:54:11.303Z</time>
      </trkpt>
      <trkpt lat="68.16357" lon="13.59101">
        <ele>59.789919</ele>
        <time>2020-08-20T08:55:04.287Z</time>
      </trkpt>
      <trkpt lat="68.16297" lon="13.59643">
        <ele>64.436081</ele>
        <time>2020-08-20T08:55:57.290Z</time>
      </trkpt>
      <trkpt lat="68.16223" lon="13.60324">
        <ele>62.747818</ele>
        <time>2020-08-20T08:56:43.329Z</time>
      </trkpt>
      <trkpt lat="68.16162" lon="13.60908">
        <ele>58.702656</ele>
        <time>2020-08-20T08:57:21.292Z</time>
      </trkpt>
      <trkpt lat="68.16074" lon="13.61494">
        <ele>55.223005</ele>
        <time>2020-08-20T08:57:50.322Z</time>
      </trkpt>
      <trkpt lat="68.15905" lon="13.61858">
        <ele>56.797371</ele>
        <time>2020-08-20T08:58:32.311Z</time>
      </trkpt>
      <trkpt lat="68.15664" lon="13.62044">
        <ele>53.128007</ele>
        <time>2020-08-20T08:59:13.332Z</time>
      </trkpt>
      <trkpt lat="68.1568" lon="13.62399">
        <ele>51.364679</ele>
        <time>2020-08-20T08:59:57.291Z</time>
      </trkpt>
      <trkpt lat="68.15901" lon="13.62565">
        <ele>52.002091</ele>
        <time>2020-08-20T09:00:40.298Z</time>
      </trkpt>
      <trkpt lat="68.16155" lon="13.62849">
        <ele>49.045139</ele>
        <time>2020-08-20T09:01:20.286Z</time>
      </trkpt>
      <trkpt lat="68.16364" lon="13.62821">
        <ele>57.433644</ele>
        <time>2020-08-20T09:02:25.311Z</time>
      </trkpt>
      <trkpt lat="68.16558" lon="13.63027">
        <ele>63.983314</ele>
        <time>2020-08-20T09:05:02.349Z</time>
      </trkpt>
      <trkpt lat="68.16779" lon="13.63193">
        <ele>65.847761</ele>
        <time>2020-08-20T09:06:02.339Z</time>
      </trkpt>
      <trkpt lat="68.16997" lon="13.63174">
        <ele>63.378487</ele>
        <time>2020-08-20T09:06:44.311Z</time>
      </trkpt>
      <trkpt lat="68.17244" lon="13.63195">
        <ele>62.358726</ele>
        <time>2020-08-20T09:07:25.326Z</time>
      </trkpt>
      <trkpt lat="68.17499" lon="13.6319">
        <ele>63.491455</ele>
        <time>2020-08-20T09:08:14.313Z</time>
      </trkpt>
      <trkpt lat="68.17695" lon="13.63088">
        <ele>63.677575</ele>
        <time>2020-08-20T09:08:56.316Z</time>
      </trkpt>
      <trkpt lat="68.17906" lon="13.62824">
        <ele>62.092988</ele>
        <time>2020-08-20T09:09:36.353Z</time>
      </trkpt>
      <trkpt lat="68.18154" lon="13.62691">
        <ele>58.925295</ele>
        <time>2020-08-20T09:10:16.307Z</time>
      </trkpt>
      <trkpt lat="68.18307" lon="13.6326">
        <ele>53.729098</ele>
        <time>2020-08-20T09:10:56.315Z</time>
      </trkpt>
      <trkpt lat="68.18444" lon="13.63858">
        <ele>51.56256</ele>
        <time>2020-08-20T09:11:36.319Z</time>
      </trkpt>
      <trkpt lat="68.18557" lon="13.64463">
        <ele>49.83714</ele>
        <time>2020-08-20T09:12:16.294Z</time>
      </trkpt>
      <trkpt lat="68.18673" lon="13.65083">
        <ele>49.656276</ele>
        <time>2020-08-20T09:12:56.292Z</time>
      </trkpt>
      <trkpt lat="68.18825" lon="13.65617">
        <ele>52.049025</ele>
        <time>2020-08-20T09:13:43.320Z</time>
      </trkpt>
      <trkpt lat="68.1899" lon="13.66059">
        <ele>54.001914</ele>
        <time>2020-08-20T09:14:36.307Z</time>
      </trkpt>
      <trkpt lat="68.1914" lon="13.66418">
        <ele>56.523041</ele>
        <time>2020-08-20T09:15:20.308Z</time>
      </trkpt>
      <trkpt lat="68.19338" lon="13.66697">
        <ele>56.581894</ele>
        <time>2020-08-20T09:16:13.319Z</time>
      </trkpt>
      <trkpt lat="68.19547" lon="13.66946">
        <ele>63.248188</ele>
        <time>2020-08-20T09:17:16.274Z</time>
      </trkpt>
      <trkpt lat="68.19728" lon="13.67212">
        <ele>68.235358</ele>
        <time>2020-08-20T09:18:14.311Z</time>
      </trkpt>
      <trkpt lat="68.19908" lon="13.67407">
        <ele>68.572186</ele>
        <time>2020-08-20T09:18:56.320Z</time>
      </trkpt>
      <trkpt lat="68.20111" lon="13.67727">
        <ele>69.495881</ele>
        <time>2020-08-20T09:19:44.291Z</time>
      </trkpt>
      <trkpt lat="68.20309" lon="13.6816">
        <ele>63.92549</ele>
        <time>2020-08-20T09:20:24.312Z</time>
      </trkpt>
      <trkpt lat="68.20527" lon="13.68496">
        <ele>61.479999</ele>
        <time>2020-08-20T09:21:04.324Z</time>
      </trkpt>
      <trkpt lat="68.20703" lon="13.68933">
        <ele>60.324663</ele>
        <time>2020-08-20T09:21:44.299Z</time>
      </trkpt>
      <trkpt lat="68.2085" lon="13.69391">
        <ele>62.058681</ele>
        <time>2020-08-20T09:22:24.307Z</time>
      </trkpt>
      <trkpt lat="68.2099" lon="13.69834">
        <ele>63.074741</ele>
        <time>2020-08-20T09:23:04.311Z</time>
      </trkpt>
      <trkpt lat="68.21114" lon="13.70223">
        <ele>64.403519</ele>
        <time>2020-08-20T09:23:44.334Z</time>
      </trkpt>
      <trkpt lat="68.21251" lon="13.70649">
        <ele>63.105386</ele>
        <time>2020-08-20T09:24:24.291Z</time>
      </trkpt>
      <trkpt lat="68.2139" lon="13.71146">
        <ele>60.703284</ele>
        <time>2020-08-20T09:25:04.306Z</time>
      </trkpt>
      <trkpt lat="68.21519" lon="13.71658">
        <ele>64.073023</ele>
        <time>2020-08-20T09:25:55.350Z</time>
      </trkpt>
      <trkpt lat="68.21697" lon="13.72018">
        <ele>64.341936</ele>
        <time>2020-08-20T09:26:46.349Z</time>
      </trkpt>
      <trkpt lat="68.21873" lon="13.72374">
        <ele>66.269546</ele>
        <time>2020-08-20T09:27:36.302Z</time>
      </trkpt>
      <trkpt lat="68.22032" lon="13.72769">
        <ele>68.358411</ele>
        <time>2020-08-20T09:28:31.310Z</time>
      </trkpt>
      <trkpt lat="68.2224" lon="13.73208">
        <ele>65.02864</ele>
        <time>2020-08-20T09:29:11.304Z</time>
      </trkpt>
      <trkpt lat="68.22439" lon="13.73173">
        <ele>68.611486</ele>
        <time>2020-08-20T09:30:05.311Z</time>
      </trkpt>
      <trkpt lat="68.22626" lon="13.73424">
        <ele>70.427555</ele>
        <time>2020-08-20T09:30:56.380Z</time>
      </trkpt>
      <trkpt lat="68.22853" lon="13.73551">
        <ele>67.94663</ele>
        <time>2020-08-20T09:31:36.358Z</time>
      </trkpt>
      <trkpt lat="68.23043" lon="13.73789">
        <ele>68.48071</ele>
        <time>2020-08-20T09:32:16.297Z</time>
      </trkpt>
      <trkpt lat="68.23279" lon="13.74086">
        <ele>62.908257</ele>
        <time>2020-08-20T09:32:56.298Z</time>
      </trkpt>
      <trkpt lat="68.23484" lon="13.74342">
        <ele>59.771953</ele>
        <time>2020-08-20T09:33:36.340Z</time>
      </trkpt>
      <trkpt lat="68.23691" lon="13.74606">
        <ele>62.108104</ele>
        <time>2020-08-20T09:34:26.300Z</time>
      </trkpt>
      <trkpt lat="68.23881" lon="13.74847">
        <ele>63.295172</ele>
        <time>2020-08-20T09:35:12.306Z</time>
      </trkpt>
      <trkpt lat="68.24078" lon="13.75099">
        <ele>61.443274</ele>
        <time>2020-08-20T09:35:52.354Z</time>
      </trkpt>
      <trkpt lat="68.24267" lon="13.7532">
        <ele>65.817888</ele>
        <time>2020-08-20T09:36:46.288Z</time>
      </trkpt>
      <trkpt lat="68.24394" lon="13.75616">
        <ele>71.91118</ele>
        <time>2020-08-20T09:40:29.043Z</time>
      </trkpt>
      <trkpt lat="68.24214" lon="13.75267">
        <ele>65.60706</ele>
        <time>2020-08-20T12:07:03.416Z</time>
      </trkpt>
      <trkpt lat="68.2397" lon="13.74965">
        <ele>60.554041</ele>
        <time>2020-08-20T12:07:42.412Z</time>
      </trkpt>
      <trkpt lat="68.23789" lon="13.74739">
        <ele>63.176144</ele>
        <time>2020-08-20T12:08:22.405Z</time>
      </trkpt>
      <trkpt lat="68.23581" lon="13.74471">
        <ele>62.443529</ele>
        <time>2020-08-20T12:09:02.416Z</time>
      </trkpt>
      <trkpt lat="68.23371" lon="13.74205">
        <ele>61.836373</ele>
        <time>2020-08-20T12:09:42.419Z</time>
      </trkpt>
      <trkpt lat="68.23162" lon="13.73938">
        <ele>64.955616</ele>
        <time>2020-08-20T12:10:25.383Z</time>
      </trkpt>
      <trkpt lat="68.2297" lon="13.73695">
        <ele>68.625989</ele>
        <time>2020-08-20T12:11:17.384Z</time>
      </trkpt>
      <trkpt lat="68.22755" lon="13.73485">
        <ele>67.875551</ele>
        <time>2020-08-20T12:11:59.418Z</time>
      </trkpt>
      <trkpt lat="68.22559" lon="13.73319">
        <ele>70.457934</ele>
        <time>2020-08-20T12:12:39.423Z</time>
      </trkpt>
      <trkpt lat="68.22332" lon="13.7319">
        <ele>68.415321</ele>
        <time>2020-08-20T12:13:16.395Z</time>
      </trkpt>
      <trkpt lat="68.22117" lon="13.73045">
        <ele>63.232473</ele>
        <time>2020-08-20T12:13:42.433Z</time>
      </trkpt>
      <trkpt lat="68.21974" lon="13.72579">
        <ele>70.014015</ele>
        <time>2020-08-20T12:14:36.390Z</time>
      </trkpt>
      <trkpt lat="68.21758" lon="13.7213">
        <ele>66.960566</ele>
        <time>2020-08-20T12:15:16.436Z</time>
      </trkpt>
      <trkpt lat="68.21549" lon="13.71708">
        <ele>66.122112</ele>
        <time>2020-08-20T12:15:56.398Z</time>
      </trkpt>
      <trkpt lat="68.21387" lon="13.71103">
        <ele>63.52532</ele>
        <time>2020-08-20T12:16:36.385Z</time>
      </trkpt>
      <trkpt lat="68.21235" lon="13.7059">
        <ele>60.969592</ele>
        <time>2020-08-20T12:17:16.417Z</time>
      </trkpt>
      <trkpt lat="68.21087" lon="13.70123">
        <ele>61.34206</ele>
        <time>2020-08-20T12:17:56.414Z</time>
      </trkpt>
      <trkpt lat="68.2091" lon="13.6957">
        <ele>58.792535</ele>
        <time>2020-08-20T12:18:36.426Z</time>
      </trkpt>
      <trkpt lat="68.20751" lon="13.69073">
        <ele>60.697279</ele>
        <time>2020-08-20T12:19:16.432Z</time>
      </trkpt>
      <trkpt lat="68.20592" lon="13.68598">
        <ele>60.907054</ele>
        <time>2020-08-20T12:19:58.394Z</time>
      </trkpt>
      <trkpt lat="68.20403" lon="13.6833">
        <ele>63.654086</ele>
        <time>2020-08-20T12:20:38.390Z</time>
      </trkpt>
      <trkpt lat="68.20234" lon="13.67984">
        <ele>66.670344</ele>
        <time>2020-08-20T12:21:18.379Z</time>
      </trkpt>
      <trkpt lat="68.20067" lon="13.67628">
        <ele>69.620024</ele>
        <time>2020-08-20T12:21:58.387Z</time>
      </trkpt>
      <trkpt lat="68.19871" lon="13.67369">
        <ele>68.804623</ele>
        <time>2020-08-20T12:22:38.436Z</time>
      </trkpt>
      <trkpt lat="68.19654" lon="13.67076">
        <ele>67.171182</ele>
        <time>2020-08-20T12:23:18.397Z</time>
      </trkpt>
      <trkpt lat="68.19365" lon="13.66721">
        <ele>59.117606</ele>
        <time>2020-08-20T12:23:58.422Z</time>
      </trkpt>
      <trkpt lat="68.19095" lon="13.66306">
        <ele>53.217317</ele>
        <time>2020-08-20T12:24:36.397Z</time>
      </trkpt>
      <trkpt lat="68.1892" lon="13.65846">
        <ele>51.996006</ele>
        <time>2020-08-20T12:25:16.401Z</time>
      </trkpt>
      <trkpt lat="68.18723" lon="13.653">
        <ele>48.402922</ele>
        <time>2020-08-20T12:25:59.426Z</time>
      </trkpt>
      <trkpt lat="68.18601" lon="13.64706">
        <ele>47.344313</ele>
        <time>2020-08-20T12:26:39.439Z</time>
      </trkpt>
      <trkpt lat="68.18503" lon="13.64174">
        <ele>48.472678</ele>
        <time>2020-08-20T12:27:21.425Z</time>
      </trkpt>
      <trkpt lat="68.184" lon="13.63685">
        <ele>50.368648</ele>
        <time>2020-08-20T12:28:01.435Z</time>
      </trkpt>
      <trkpt lat="68.18298" lon="13.63208">
        <ele>52.014569</ele>
        <time>2020-08-20T12:28:41.412Z</time>
      </trkpt>
      <trkpt lat="68.18182" lon="13.62729">
        <ele>56.992483</ele>
        <time>2020-08-20T12:29:33.398Z</time>
      </trkpt>
      <trkpt lat="68.18158" lon="13.62199">
        <ele>57.87094</ele>
        <time>2020-08-20T12:30:32.437Z</time>
      </trkpt>
      <trkpt lat="68.18267" lon="13.61817">
        <ele>55.881609</ele>
        <time>2020-08-20T12:31:22.424Z</time>
      </trkpt>
      <trkpt lat="68.18441" lon="13.61402">
        <ele>51.184703</ele>
        <time>2020-08-20T12:32:07.405Z</time>
      </trkpt>
      <trkpt lat="68.18582" lon="13.6095">
        <ele>48.575378</ele>
        <time>2020-08-20T12:32:50.416Z</time>
      </trkpt>
      <trkpt lat="68.18671" lon="13.60433">
        <ele>51.232105</ele>
        <time>2020-08-20T12:33:39.429Z</time>
      </trkpt>
      <trkpt lat="68.18671" lon="13.59867">
        <ele>59.235565</ele>
        <time>2020-08-20T12:34:43.422Z</time>
      </trkpt>
      <trkpt lat="68.18648" lon="13.5948">
        <ele>56.763738</ele>
        <time>2020-08-20T12:35:44.417Z</time>
      </trkpt>
      <trkpt lat="68.18782" lon="13.59597">
        <ele>58.050217</ele>
        <time>2020-08-20T12:36:46.437Z</time>
      </trkpt>
      <trkpt lat="68.18908" lon="13.59105">
        <ele>54.999479</ele>
        <time>2020-08-20T12:40:21.409Z</time>
      </trkpt>
      <trkpt lat="68.18996" lon="13.58591">
        <ele>57.724669</ele>
        <time>2020-08-20T12:41:25.432Z</time>
      </trkpt>
      <trkpt lat="68.19086" lon="13.58096">
        <ele>59.573443</ele>
        <time>2020-08-20T12:42:29.395Z</time>
      </trkpt>
      <trkpt lat="68.1918" lon="13.57612">
        <ele>69.997482</ele>
        <time>2020-08-20T12:43:50.388Z</time>
      </trkpt>
      <trkpt lat="68.19325" lon="13.57251">
        <ele>83.191886</ele>
        <time>2020-08-20T12:45:28.395Z</time>
      </trkpt>
      <trkpt lat="68.19469" lon="13.56869">
        <ele>94.269812</ele>
        <time>2020-08-20T12:48:21.412Z</time>
      </trkpt>
      <trkpt lat="68.19496" lon="13.56303">
        <ele>97.279348</ele>
        <time>2020-08-20T12:49:33.430Z</time>
      </trkpt>
      <trkpt lat="68.19501" lon="13.55668">
        <ele>87.017727</ele>
        <time>2020-08-20T12:50:57.398Z</time>
      </trkpt>
      <trkpt lat="68.19478" lon="13.54972">
        <ele>65.581881</ele>
        <time>2020-08-20T12:51:37.402Z</time>
      </trkpt>
      <trkpt lat="68.19451" lon="13.5439">
        <ele>57.368919</ele>
        <time>2020-08-20T12:52:21.445Z</time>
      </trkpt>
      <trkpt lat="68.19443" lon="13.53834">
        <ele>51.908343</ele>
        <time>2020-08-20T12:53:10.385Z</time>
      </trkpt>
      <trkpt lat="68.19481" lon="13.53528">
        <ele>47.020232</ele>
        <time>2020-08-20T13:10:20.454Z</time>
      </trkpt>
      <trkpt lat="68.19393" lon="13.53932">
        <ele>48.152241</ele>
        <time>2020-08-20T14:14:40.066Z</time>
      </trkpt>
      <trkpt lat="68.192" lon="13.54015">
        <ele>50.003627</ele>
        <time>2020-08-20T14:15:21.087Z</time>
      </trkpt>
      <trkpt lat="68.19011" lon="13.53939">
        <ele>50.570854</ele>
        <time>2020-08-20T14:16:01.066Z</time>
      </trkpt>
      <trkpt lat="68.18933" lon="13.53473">
        <ele>43.615772</ele>
        <time>2020-08-20T14:16:52.094Z</time>
      </trkpt>
      <trkpt lat="68.1884" lon="13.52978">
        <ele>47.735086</ele>
        <time>2020-08-20T14:17:39.071Z</time>
      </trkpt>
      <trkpt lat="68.18643" lon="13.52827">
        <ele>50.043321</ele>
        <time>2020-08-20T14:18:28.098Z</time>
      </trkpt>
      <trkpt lat="68.18442" lon="13.52985">
        <ele>53.005985</ele>
        <time>2020-08-20T14:19:12.080Z</time>
      </trkpt>
      <trkpt lat="68.18226" lon="13.52747">
        <ele>61.438603</ele>
        <time>2020-08-20T14:20:15.075Z</time>
      </trkpt>
      <trkpt lat="68.18037" lon="13.52519">
        <ele>68.707286</ele>
        <time>2020-08-20T14:21:27.063Z</time>
      </trkpt>
      <trkpt lat="68.17844" lon="13.52304">
        <ele>78.010259</ele>
        <time>2020-08-20T14:22:42.057Z</time>
      </trkpt>
      <trkpt lat="68.17646" lon="13.52407">
        <ele>83.270145</ele>
        <time>2020-08-20T14:23:58.078Z</time>
      </trkpt>
      <trkpt lat="68.17425" lon="13.52768">
        <ele>73.504432</ele>
        <time>2020-08-20T14:24:39.077Z</time>
      </trkpt>
      <trkpt lat="68.17388" lon="13.53332">
        <ele>58.073374</ele>
        <time>2020-08-20T14:24:59.069Z</time>
      </trkpt>
      <trkpt lat="68.17297" lon="13.53837">
        <ele>46.888496</ele>
        <time>2020-08-20T14:25:19.063Z</time>
      </trkpt>
      <trkpt lat="68.17447" lon="13.5427">
        <ele>49.125721</ele>
        <time>2020-08-20T14:25:58.078Z</time>
      </trkpt>
      <trkpt lat="68.17554" lon="13.54765">
        <ele>57.966293</ele>
        <time>2020-08-20T14:27:01.113Z</time>
      </trkpt>
      <trkpt lat="68.17652" lon="13.55317">
        <ele>58.748043</ele>
        <time>2020-08-20T14:27:53.086Z</time>
      </trkpt>
      <trkpt lat="68.17631" lon="13.55891">
        <ele>50.535382</ele>
        <time>2020-08-20T14:28:27.075Z</time>
      </trkpt>
      <trkpt lat="68.17392" lon="13.56094">
        <ele>48.311754</ele>
        <time>2020-08-20T14:29:07.078Z</time>
      </trkpt>
      <trkpt lat="68.17397" lon="13.56551">
        <ele>54.587211</ele>
        <time>2020-08-20T14:30:14.078Z</time>
      </trkpt>
      <trkpt lat="68.17599" lon="13.56925">
        <ele>53.421666</ele>
        <time>2020-08-20T14:30:59.105Z</time>
      </trkpt>
      <trkpt lat="68.17818" lon="13.57342">
        <ele>46.247566</ele>
        <time>2020-08-20T14:31:43.106Z</time>
      </trkpt>
      <trkpt lat="68.17902" lon="13.57985">
        <ele>45.113554</ele>
        <time>2020-08-20T14:32:23.079Z</time>
      </trkpt>
      <trkpt lat="68.17982" lon="13.58524">
        <ele>53.327553</ele>
        <time>2020-08-20T14:33:34.067Z</time>
      </trkpt>
      <trkpt lat="68.18154" lon="13.58732">
        <ele>56.667341</ele>
        <time>2020-08-20T14:34:36.072Z</time>
      </trkpt>
      <trkpt lat="68.18367" lon="13.58978">
        <ele>53.188177</ele>
        <time>2020-08-20T14:35:19.098Z</time>
      </trkpt>
      <trkpt lat="68.18557" lon="13.59308">
        <ele>51.064155</ele>
        <time>2020-08-20T14:35:59.083Z</time>
      </trkpt>
      <trkpt lat="68.18711" lon="13.59676">
        <ele>56.118835</ele>
        <time>2020-08-20T14:36:59.066Z</time>
      </trkpt>
      <trkpt lat="68.18678" lon="13.60304">
        <ele>54.447957</ele>
        <time>2020-08-20T14:37:46.104Z</time>
      </trkpt>
      <trkpt lat="68.18597" lon="13.609">
        <ele>47.939541</ele>
        <time>2020-08-20T14:38:13.079Z</time>
      </trkpt>
      <trkpt lat="68.18449" lon="13.61322">
        <ele>49.589419</ele>
        <time>2020-08-20T14:39:13.155Z</time>
      </trkpt>
      <trkpt lat="68.18293" lon="13.61793">
        <ele>52.081732</ele>
        <time>2020-08-20T14:40:00.108Z</time>
      </trkpt>
      <trkpt lat="68.18153" lon="13.62077">
        <ele>57.080929</ele>
        <time>2020-08-20T14:40:57.096Z</time>
      </trkpt>
      <trkpt lat="68.18172" lon="13.6269">
        <ele>58.567409</ele>
        <time>2020-08-20T14:41:45.095Z</time>
      </trkpt>
      <trkpt lat="68.17974" lon="13.62738">
        <ele>57.651507</ele>
        <time>2020-08-20T14:42:28.085Z</time>
      </trkpt>
      <trkpt lat="68.17761" lon="13.63005">
        <ele>62.839938</ele>
        <time>2020-08-20T14:43:25.086Z</time>
      </trkpt>
      <trkpt lat="68.17556" lon="13.63194">
        <ele>64.099761</ele>
        <time>2020-08-20T14:44:10.073Z</time>
      </trkpt>
      <trkpt lat="68.17325" lon="13.63195">
        <ele>60.900697</ele>
        <time>2020-08-20T14:44:50.084Z</time>
      </trkpt>
      <trkpt lat="68.17082" lon="13.63175">
        <ele>57.93741</ele>
        <time>2020-08-20T14:45:30.104Z</time>
      </trkpt>
      <trkpt lat="68.16848" lon="13.63184">
        <ele>61.424037</ele>
        <time>2020-08-20T14:46:26.085Z</time>
      </trkpt>
      <trkpt lat="68.16633" lon="13.63093">
        <ele>61.718985</ele>
        <time>2020-08-20T14:47:09.076Z</time>
      </trkpt>
      <trkpt lat="68.16425" lon="13.62853">
        <ele>58.129756</ele>
        <time>2020-08-20T14:47:49.099Z</time>
      </trkpt>
      <trkpt lat="68.16195" lon="13.62848">
        <ele>47.396495</ele>
        <time>2020-08-20T14:48:18.093Z</time>
      </trkpt>
      <trkpt lat="68.1598" lon="13.62662">
        <ele>44.481295</ele>
        <time>2020-08-20T14:48:51.082Z</time>
      </trkpt>
      <trkpt lat="68.1575" lon="13.6245">
        <ele>51.139203</ele>
        <time>2020-08-20T14:49:48.098Z</time>
      </trkpt>
      <trkpt lat="68.15522" lon="13.623">
        <ele>51.504756</ele>
        <time>2020-08-20T14:50:30.064Z</time>
      </trkpt>
      <trkpt lat="68.15264" lon="13.62173">
        <ele>48.488441</ele>
        <time>2020-08-20T14:51:12.069Z</time>
      </trkpt>
      <trkpt lat="68.15032" lon="13.62089">
        <ele>48.641261</ele>
        <time>2020-08-20T14:51:52.178Z</time>
      </trkpt>
      <trkpt lat="68.14847" lon="13.619">
        <ele>50.452441</ele>
        <time>2020-08-20T14:52:39.067Z</time>
      </trkpt>
      <trkpt lat="68.14762" lon="13.61471">
        <ele>51.25243</ele>
        <time>2020-08-20T14:53:22.119Z</time>
      </trkpt>
      <trkpt lat="68.14828" lon="13.61746">
        <ele>56.191361</ele>
        <time>2020-08-20T16:10:43.413Z</time>
      </trkpt>
      <trkpt lat="68.14977" lon="13.61957">
        <ele>57.070252</ele>
        <time>2020-08-20T16:16:53.426Z</time>
      </trkpt>
      <trkpt lat="68.15168" lon="13.62124">
        <ele>48.203542</ele>
        <time>2020-08-20T16:17:53.437Z</time>
      </trkpt>
      <trkpt lat="68.15394" lon="13.62214">
        <ele>49.469206</ele>
        <time>2020-08-20T16:18:41.410Z</time>
      </trkpt>
      <trkpt lat="68.15595" lon="13.62318">
        <ele>50.299039</ele>
        <time>2020-08-20T16:19:33.410Z</time>
      </trkpt>
      <trkpt lat="68.15735" lon="13.62008">
        <ele>50.928824</ele>
        <time>2020-08-20T16:20:21.421Z</time>
      </trkpt>
      <trkpt lat="68.15934" lon="13.61811">
        <ele>56.142486</ele>
        <time>2020-08-20T16:21:23.406Z</time>
      </trkpt>
      <trkpt lat="68.161" lon="13.61434">
        <ele>53.305467</ele>
        <time>2020-08-20T16:22:08.422Z</time>
      </trkpt>
      <trkpt lat="68.16176" lon="13.60786">
        <ele>57.178892</ele>
        <time>2020-08-20T16:23:06.418Z</time>
      </trkpt>
      <trkpt lat="68.16235" lon="13.6024">
        <ele>61.778384</ele>
        <time>2020-08-20T16:24:04.414Z</time>
      </trkpt>
      <trkpt lat="68.16295" lon="13.59687">
        <ele>63.228206</ele>
        <time>2020-08-20T16:25:00.416Z</time>
      </trkpt>
      <trkpt lat="68.16364" lon="13.59056">
        <ele>60.320102</ele>
        <time>2020-08-20T16:25:41.406Z</time>
      </trkpt>
      <trkpt lat="68.16316" lon="13.58521">
        <ele>55.98503</ele>
        <time>2020-08-20T16:26:21.424Z</time>
      </trkpt>
      <trkpt lat="68.16129" lon="13.58286">
        <ele>53.58571</ele>
        <time>2020-08-20T16:27:06.421Z</time>
      </trkpt>
    </trkseg>
  </trk>
</gpx>